Time;durP1;ratioP1;P1;durP2;ratioP2;P2;SDS_P1;SDS_P2;PMS_P1;PMS_P2;Temp;Humidity;BMP_temperature;BMP_pressure;BME280_temperature;BME280_humidity;BME280_pressure;Samples;Min_cycle;Max_cycle;Signal;HPM_P1;HPM_P2
2022/12/02 00:00:21;;;;;;;19.85;6.57;;;;;;;;;;4998147;28;20029;-27
2022/12/02 00:02:47;;;;;;;9.50;5.38;;;;;;;;;;4997556;28;20081;-27
2022/12/02 00:05:14;;;;;;;11.68;6.53;;;;;;;;;;4997778;28;20027;-27
2022/12/02 00:07:40;;;;;;;16.80;7.47;;;;;;;;;;4997752;28;20037;-27
2022/12/02 00:10:26;;;;;;;13.00;5.55;;;;;;;;;;4997676;28;20022;-27
2022/12/02 00:12:53;;;;;;;9.27;6.65;;;;;;;;;;4997737;28;20042;-27
2022/12/02 00:15:28;;;;;;;11.50;6.68;;;;;;;;;;4997159;28;20101;-27
2022/12/02 00:17:54;;;;;;;10.75;5.78;;;;;;;;;;4997545;28;20046;-26
2022/12/02 00:20:20;;;;;;;8.18;6.05;;;;;;;;;;4997506;28;20098;-27
2022/12/02 00:22:46;;;;;;;17.08;5.93;;;;;;;;;;4997655;28;20035;-27
2022/12/02 00:25:12;;;;;;;11.23;5.88;;;;;;;;;;4997637;28;20117;-27
2022/12/02 00:27:39;;;;;;;9.90;6.07;;;;;;;;;;4997629;28;20084;-27
2022/12/02 00:30:05;;;;;;;12.35;6.32;;;;;;;;;;4997248;28;20034;-27
2022/12/02 00:32:31;;;;;;;15.15;6.18;;;;;;;;;;4997113;28;20092;-27
2022/12/02 00:34:57;;;;;;;9.82;5.15;;;;;;;;;;4997501;28;20026;-27
2022/12/02 00:37:23;;;;;;;10.75;5.18;;;;;;;;;;4997406;28;20031;-28
2022/12/02 00:39:50;;;;;;;13.02;5.97;;;;;;;;;;4997410;28;20113;-27
2022/12/02 00:42:16;;;;;;;9.50;5.22;;;;;;;;;;4997094;28;20034;-27
2022/12/02 00:47:27;;;;;;;9.57;5.40;;;;;;;;;;4997015;28;20080;-27
2022/12/02 00:49:53;;;;;;;11.23;5.47;;;;;;;;;;4997249;28;20092;-27
2022/12/02 00:52:19;;;;;;;12.60;5.85;;;;;;;;;;4996824;28;20411;-27
2022/12/02 00:54:45;;;;;;;10.40;5.85;;;;;;;;;;4997108;28;20049;-27
2022/12/02 00:57:11;;;;;;;13.15;5.53;;;;;;;;;;4997335;28;20037;-27
2022/12/02 00:59:37;;;;;;;12.50;6.05;;;;;;;;;;4996765;28;20526;-27
2022/12/02 01:02:03;;;;;;;9.80;6.07;;;;;;;;;;4996482;28;20022;-27
2022/12/02 01:04:30;;;;;;;8.50;6.45;;;;;;;;;;4996948;28;20018;-27
2022/12/02 01:06:56;;;;;;;11.05;5.97;;;;;;;;;;4996904;28;20338;-27
2022/12/02 01:09:22;;;;;;;8.50;5.53;;;;;;;;;;4996585;28;20096;-27
2022/12/02 01:11:49;;;;;;;7.72;5.78;;;;;;;;;;4996619;28;20358;-27
2022/12/02 01:14:15;;;;;;;7.10;5.38;;;;;;;;;;4996495;28;20106;-27
2022/12/02 01:16:41;;;;;;;17.25;6.00;;;;;;;;;;4996723;28;20037;-27
2022/12/02 01:19:07;;;;;;;9.48;6.50;;;;;;;;;;4996339;28;20054;-27
2022/12/02 01:21:33;;;;;;;8.10;5.53;;;;;;;;;;4996340;28;20034;-27
2022/12/02 01:23:59;;;;;;;13.93;7.15;;;;;;;;;;4996481;28;20026;-27
2022/12/02 01:26:25;;;;;;;16.13;5.30;;;;;;;;;;4996135;28;20073;-27
2022/12/02 01:28:52;;;;;;;8.02;5.78;;;;;;;;;;4996184;28;20453;-27
2022/12/02 01:31:18;;;;;;;11.38;6.00;;;;;;;;;;4996080;28;20034;-27
2022/12/02 01:33:44;;;;;;;9.85;5.35;;;;;;;;;;4996020;28;20161;-27
2022/12/02 01:36:10;;;;;;;11.68;5.22;;;;;;;;;;4996088;28;20030;-27
2022/12/02 01:38:36;;;;;;;9.13;5.75;;;;;;;;;;4996025;28;20466;-27
2022/12/02 01:41:03;;;;;;;10.00;5.97;;;;;;;;;;4995926;28;20034;-27
2022/12/02 01:43:29;;;;;;;12.85;5.75;;;;;;;;;;4995864;28;20105;-27
2022/12/02 01:45:55;;;;;;;7.63;5.15;;;;;;;;;;4995893;28;20038;-27
2022/12/02 01:48:21;;;;;;;10.50;6.15;;;;;;;;;;4995876;28;20041;-27
2022/12/02 01:50:48;;;;;;;11.07;5.47;;;;;;;;;;4995814;28;20030;-27
2022/12/02 01:53:14;;;;;;;10.00;5.55;;;;;;;;;;4995655;28;20081;-27
2022/12/02 01:55:40;;;;;;;8.93;5.18;;;;;;;;;;4995783;28;20033;-27
2022/12/02 01:58:09;;;;;;;14.60;5.45;;;;;;;;;;4995761;28;20105;-27
2022/12/02 02:00:35;;;;;;;7.55;5.65;;;;;;;;;;4995903;28;20105;-27
2022/12/02 02:03:01;;;;;;;14.98;6.00;;;;;;;;;;4995385;28;20121;-27
2022/12/02 02:05:28;;;;;;;10.65;5.55;;;;;;;;;;4996102;28;20038;-27
2022/12/02 02:07:56;;;;;;;18.20;6.45;;;;;;;;;;4995531;28;20101;-27
2022/12/02 02:10:25;;;;;;;7.30;5.47;;;;;;;;;;4995768;28;20425;-27
2022/12/02 02:12:51;;;;;;;12.68;6.15;;;;;;;;;;4995352;28;20436;-27
2022/12/02 02:15:19;;;;;;;10.38;5.50;;;;;;;;;;4995678;28;20129;-27
2022/12/02 02:17:46;;;;;;;9.00;5.63;;;;;;;;;;4995646;28;20508;-27
2022/12/02 02:20:14;;;;;;;9.32;6.10;;;;;;;;;;4995664;28;20049;-27
2022/12/02 02:22:40;;;;;;;9.40;4.78;;;;;;;;;;4995277;28;20035;-27
2022/12/02 02:25:14;;;;;;;8.25;4.82;;;;;;;;;;4995571;28;20049;-27
2022/12/02 02:27:42;;;;;;;7.93;5.72;;;;;;;;;;4995601;28;20343;-26
2022/12/02 02:30:08;;;;;;;6.57;5.88;;;;;;;;;;4995215;28;20077;-27
2022/12/02 02:32:35;;;;;;;11.23;6.53;;;;;;;;;;4995067;28;20101;-27
2022/12/02 02:35:01;;;;;;;8.82;5.60;;;;;;;;;;4995522;28;20041;-27
2022/12/02 02:37:27;;;;;;;12.27;5.50;;;;;;;;;;4996240;28;20353;-27
2022/12/02 02:39:53;;;;;;;9.18;5.18;;;;;;;;;;5000057;28;20034;-27
2022/12/02 02:42:19;;;;;;;9.13;5.55;;;;;;;;;;5001608;28;20034;-27
2022/12/02 02:44:46;;;;;;;5.57;4.70;;;;;;;;;;5001606;28;20472;-27
2022/12/02 02:47:12;;;;;;;10.70;6.20;;;;;;;;;;5001606;28;20038;-27
2022/12/02 02:49:38;;;;;;;7.50;5.05;;;;;;;;;;5001653;28;20066;-27
2022/12/02 02:52:04;;;;;;;15.68;6.57;;;;;;;;;;5001464;28;20058;-27
2022/12/02 02:54:30;;;;;;;12.90;5.70;;;;;;;;;;5000978;28;20116;-27
2022/12/02 02:56:56;;;;;;;10.00;5.45;;;;;;;;;;5001799;28;20027;-27
2022/12/02 02:59:23;;;;;;;10.77;5.10;;;;;;;;;;5001478;28;20030;-27
2022/12/02 03:01:50;;;;;;;10.13;5.25;;;;;;;;;;5001432;28;20022;-27
2022/12/02 03:04:17;;;;;;;8.70;4.95;;;;;;;;;;5005050;28;20129;-27
2022/12/02 03:06:44;;;;;;;8.65;5.78;;;;;;;;;;5001473;28;20034;-27
2022/12/02 03:09:11;;;;;;;13.55;6.18;;;;;;;;;;5001460;28;20041;-27
2022/12/02 03:11:38;;;;;;;8.85;5.28;;;;;;;;;;5001658;28;20116;-27
2022/12/02 03:14:05;;;;;;;10.20;5.47;;;;;;;;;;5001276;28;20022;-27
2022/12/02 03:16:32;;;;;;;7.28;5.07;;;;;;;;;;5001649;28;20038;-27
2022/12/02 03:18:58;;;;;;;9.23;6.03;;;;;;;;;;5001657;28;20141;-27
2022/12/02 03:21:25;;;;;;;11.48;5.82;;;;;;;;;;5001831;28;20034;-27
2022/12/02 03:23:52;;;;;;;8.73;5.40;;;;;;;;;;5000325;28;20034;-27
2022/12/02 03:26:18;;;;;;;8.68;5.38;;;;;;;;;;5001277;28;20045;-27
2022/12/02 03:28:45;;;;;;;6.68;5.18;;;;;;;;;;5001539;28;20458;-27
2022/12/02 03:31:12;;;;;;;10.10;6.03;;;;;;;;;;5001210;28;20069;-27
2022/12/02 03:33:38;;;;;;;10.55;6.15;;;;;;;;;;5001093;28;20041;-27
2022/12/02 03:36:05;;;;;;;8.32;4.78;;;;;;;;;;5001771;28;20084;-27
2022/12/02 03:38:32;;;;;;;10.00;5.95;;;;;;;;;;5001161;28;20041;-27
2022/12/02 03:40:59;;;;;;;7.07;5.50;;;;;;;;;;5001449;28;20034;-27
2022/12/02 03:43:25;;;;;;;10.27;5.88;;;;;;;;;;5001095;28;20038;-27
2022/12/02 03:45:51;;;;;;;7.35;5.85;;;;;;;;;;5001417;28;20454;-27
2022/12/02 03:48:20;;;;;;;9.48;6.25;;;;;;;;;;5001412;28;20034;-27
2022/12/02 03:50:47;;;;;;;7.97;5.32;;;;;;;;;;4998471;28;20417;-27
2022/12/02 03:53:13;;;;;;;10.30;6.05;;;;;;;;;;4997841;28;20030;-27
2022/12/02 03:55:39;;;;;;;5.97;5.32;;;;;;;;;;4997978;28;20031;-27
2022/12/02 03:58:07;;;;;;;7.50;5.13;;;;;;;;;;4997951;28;20461;-27
2022/12/02 04:00:36;;;;;;;11.93;7.20;;;;;;;;;;4997882;28;20030;-27
2022/12/02 04:03:02;;;;;;;7.85;5.05;;;;;;;;;;4997477;28;20058;-26
2022/12/02 04:05:29;;;;;;;11.32;5.88;;;;;;;;;;4998102;28;20026;-27
2022/12/02 04:07:55;;;;;;;9.43;5.18;;;;;;;;;;4998258;28;20031;-27
2022/12/02 04:10:21;;;;;;;10.40;5.55;;;;;;;;;;4997711;28;20022;-27
2022/12/02 04:12:47;;;;;;;7.72;6.03;;;;;;;;;;4997490;28;20045;-27
2022/12/02 04:15:13;;;;;;;11.80;7.28;;;;;;;;;;4997637;28;20050;-27
2022/12/02 04:17:39;;;;;;;8.40;6.32;;;;;;;;;;4998086;28;20023;-27
2022/12/02 04:20:06;;;;;;;10.73;5.05;;;;;;;;;;4998067;28;20072;-27
2022/12/02 04:22:33;;;;;;;9.43;5.50;;;;;;;;;;4997342;28;20508;-27
2022/12/02 04:25:01;;;;;;;9.13;5.03;;;;;;;;;;4997363;28;20030;-27
2022/12/02 04:27:27;;;;;;;8.30;5.00;;;;;;;;;;4997432;28;20037;-27
2022/12/02 04:29:53;;;;;;;7.82;5.50;;;;;;;;;;4997369;28;20034;-26
2022/12/02 04:32:20;;;;;;;6.85;4.78;;;;;;;;;;4997382;28;20034;-26
2022/12/02 04:34:46;;;;;;;9.45;5.93;;;;;;;;;;4997758;28;20050;-26
2022/12/02 04:37:12;;;;;;;7.68;5.65;;;;;;;;;;4997221;28;20038;-26
2022/12/02 04:39:38;;;;;;;9.52;5.57;;;;;;;;;;4997417;28;20023;-26
2022/12/02 04:42:04;;;;;;;7.93;6.03;;;;;;;;;;4997271;28;20102;-26
2022/12/02 04:44:30;;;;;;;7.68;5.35;;;;;;;;;;4997628;28;20027;-26
2022/12/02 04:46:57;;;;;;;8.75;5.45;;;;;;;;;;4997046;28;20102;-27
2022/12/02 04:49:23;;;;;;;7.55;4.57;;;;;;;;;;4996900;28;20406;-27
2022/12/02 04:51:49;;;;;;;8.02;5.40;;;;;;;;;;4996761;28;20054;-26
2022/12/02 04:54:15;;;;;;;9.35;5.20;;;;;;;;;;4997014;28;20022;-27
2022/12/02 04:56:41;;;;;;;9.02;5.63;;;;;;;;;;4997274;28;20034;-27
2022/12/02 04:59:07;;;;;;;7.43;4.75;;;;;;;;;;4996748;28;20458;-27
2022/12/02 05:01:33;;;;;;;8.65;6.40;;;;;;;;;;4996358;28;20037;-27
2022/12/02 05:03:59;;;;;;;8.25;5.03;;;;;;;;;;4996537;28;20058;-27
2022/12/02 05:06:26;;;;;;;7.88;4.82;;;;;;;;;;4996506;28;20369;-27
2022/12/02 05:08:52;;;;;;;6.85;5.07;;;;;;;;;;4996506;28;20022;-27
2022/12/02 05:11:18;;;;;;;10.93;5.45;;;;;;;;;;4996410;28;20331;-27
2022/12/02 05:13:44;;;;;;;7.30;5.65;;;;;;;;;;4995779;28;20147;-27
2022/12/02 05:16:10;;;;;;;7.97;5.72;;;;;;;;;;4996113;28;20077;-27
2022/12/02 05:18:36;;;;;;;8.70;4.90;;;;;;;;;;4996052;28;20026;-27
2022/12/02 05:21:02;;;;;;;7.18;5.15;;;;;;;;;;4996100;28;20106;-27
2022/12/02 05:23:29;;;;;;;8.48;5.50;;;;;;;;;;4996110;28;20026;-27
2022/12/02 05:25:55;;;;;;;7.50;5.38;;;;;;;;;;4996431;28;20390;-27
2022/12/02 05:28:21;;;;;;;8.23;5.80;;;;;;;;;;4996160;28;20022;-27
2022/12/02 05:30:47;;;;;;;11.13;5.47;;;;;;;;;;4996050;28;20053;-27
2022/12/02 05:33:13;;;;;;;7.57;5.53;;;;;;;;;;4995995;28;20033;-27
2022/12/02 05:35:39;;;;;;;7.93;5.57;;;;;;;;;;4996273;28;20026;-27
2022/12/02 05:38:05;;;;;;;6.97;5.25;;;;;;;;;;4997066;28;20336;-27
2022/12/02 05:40:32;;;;;;;7.18;5.18;;;;;;;;;;4995921;28;20049;-27
2022/12/02 05:43:01;;;;;;;6.45;4.80;;;;;;;;;;4995993;28;20030;-27
2022/12/02 05:45:28;;;;;;;7.43;5.38;;;;;;;;;;4995651;28;20354;-27
2022/12/02 05:47:54;;;;;;;5.53;5.03;;;;;;;;;;4995952;28;20104;-27
2022/12/02 05:50:20;;;;;;;10.43;5.35;;;;;;;;;;4995957;28;20041;-27
2022/12/02 05:52:50;;;;;;;8.80;5.95;;;;;;;;;;4995772;28;20064;-27
2022/12/02 05:55:18;;;;;;;6.57;5.18;;;;;;;;;;4995459;28;20033;-27
2022/12/02 05:57:44;;;;;;;13.05;6.25;;;;;;;;;;4995812;28;20167;-27
2022/12/02 06:00:10;;;;;;;7.28;5.32;;;;;;;;;;4996334;28;20445;-27
2022/12/02 06:02:38;;;;;;;8.60;5.22;;;;;;;;;;4995439;28;20026;-27
2022/12/02 06:05:20;;;;;;;11.80;5.88;;;;;;;;;;4995225;28;20141;-27
2022/12/02 06:07:47;;;;;;;8.15;4.80;;;;;;;;;;4995668;28;20445;-27
2022/12/02 06:10:22;;;;;;;14.55;5.70;;;;;;;;;;4995349;28;20113;-27
2022/12/02 06:12:49;;;;;;;11.50;5.32;;;;;;;;;;4995074;28;20042;-27
2022/12/02 06:15:15;;;;;;;7.00;5.32;;;;;;;;;;4995034;28;20061;-26
2022/12/02 06:17:41;;;;;;;7.20;4.82;;;;;;;;;;4995565;28;20022;-27
2022/12/02 06:20:13;;;;;;;9.55;5.25;;;;;;;;;;4995267;28;20030;-27
2022/12/02 06:22:39;;;;;;;12.35;5.40;;;;;;;;;;4995413;28;20054;-26
2022/12/02 06:25:18;;;;;;;12.77;6.45;;;;;;;;;;4995997;28;20117;-26
2022/12/02 06:27:44;;;;;;;11.63;5.57;;;;;;;;;;4995449;28;20121;-26
2022/12/02 06:30:13;;;;;;;14.13;6.63;;;;;;;;;;4995466;28;20365;-26
2022/12/02 06:32:42;;;;;;;12.05;5.35;;;;;;;;;;4995027;28;20034;-26
2022/12/02 06:35:22;;;;;;;11.43;5.57;;;;;;;;;;4995029;28;20033;-27
2022/12/02 06:37:50;;;;;;;9.05;5.53;;;;;;;;;;4994944;28;20041;-26
2022/12/02 06:40:25;;;;;;;12.93;5.80;;;;;;;;;;4995124;28;20030;-27
2022/12/02 06:42:51;;;;;;;7.57;4.88;;;;;;;;;;4994765;28;20096;-27
2022/12/02 06:45:23;;;;;;;11.20;5.75;;;;;;;;;;4995232;28;20054;-27
2022/12/02 06:47:50;;;;;;;7.00;4.65;;;;;;;;;;4994899;28;20023;-27
2022/12/02 06:50:24;;;;;;;9.35;4.75;;;;;;;;;;4995107;28;20100;-27
2022/12/02 06:52:51;;;;;;;9.27;5.72;;;;;;;;;;4994605;28;20030;-27
2022/12/02 06:55:26;;;;;;;10.95;5.55;;;;;;;;;;4994786;28;20049;-27
2022/12/02 06:57:52;;;;;;;9.77;5.60;;;;;;;;;;4994820;28;20088;-27
2022/12/02 07:00:19;;;;;;;10.15;5.53;;;;;;;;;;4995366;28;20022;-27
2022/12/02 07:02:45;;;;;;;15.05;5.82;;;;;;;;;;4994679;28;20100;-27
2022/12/02 07:05:16;;;;;;;18.30;6.22;;;;;;;;;;4994584;28;20192;-27
2022/12/02 07:07:42;;;;;;;;;;;;;;;;;;4995718;28;20442;-27
2022/12/02 07:10:14;;;;;;;20.30;6.28;;;;;;;;;;4994754;28;19913;-27
2022/12/02 07:12:41;;;;;;;6.82;5.53;;;;;;;;;;4994686;28;20034;-27
2022/12/02 07:15:26;;;;;;;15.48;5.45;;;;;;;;;;4994974;28;20030;-27
2022/12/02 07:17:53;;;;;;;10.43;5.22;;;;;;;;;;4994982;28;20060;-27
2022/12/02 07:20:36;;;;;;;12.43;5.38;;;;;;;;;;4994669;28;20031;-27
2022/12/02 07:23:14;;;;;;;27.48;8.32;;;;;;;;;;4994708;28;20030;-27
2022/12/02 07:25:46;;;;;;;10.20;6.07;;;;;;;;;;4996866;28;20062;-27
2022/12/02 07:28:24;;;;;;;18.33;6.43;;;;;;;;;;4998359;28;20469;-27
2022/12/02 07:30:55;;;;;;;17.33;5.97;;;;;;;;;;4998286;28;20038;-27
2022/12/02 07:33:21;;;;;;;;;;;;;;;;;;4998702;28;20476;-27
2022/12/02 07:35:47;;;;;;;8.38;5.13;;;;;;;;;;4998641;28;19910;-27
2022/12/02 07:38:13;;;;;;;11.27;6.32;;;;;;;;;;4997763;28;20105;-27
2022/12/02 07:40:41;;;;;;;11.40;6.00;;;;;;;;;;4998003;28;20034;-27
2022/12/02 07:43:08;;;;;;;7.25;5.20;;;;;;;;;;4997789;28;20353;-27
2022/12/02 07:45:34;;;;;;;6.00;5.40;;;;;;;;;;4997543;28;20031;-27
2022/12/02 07:48:00;;;;;;;11.98;5.63;;;;;;;;;;4997509;28;20126;-28
2022/12/02 07:50:27;;;;;;;17.65;5.32;;;;;;;;;;4997524;28;20022;-28
2022/12/02 07:52:53;;;;;;;16.08;5.78;;;;;;;;;;4997314;28;20125;-28
2022/12/02 07:55:19;;;;;;;14.35;5.22;;;;;;;;;;4997277;28;20066;-28
2022/12/02 07:57:45;;;;;;;10.02;6.47;;;;;;;;;;4997590;28;20361;-28
2022/12/02 08:00:12;;;;;;;11.15;5.72;;;;;;;;;;4997218;28;20373;-28
2022/12/02 08:02:38;;;;;;;12.10;6.70;;;;;;;;;;4996938;28;20038;-27
2022/12/02 08:05:05;;;;;;;11.15;6.20;;;;;;;;;;4996987;28;20077;-27
2022/12/02 08:07:31;;;;;;;17.20;5.95;;;;;;;;;;4997316;28;20370;-27
2022/12/02 08:09:57;;;;;;;9.98;6.03;;;;;;;;;;4997320;28;20030;-28
2022/12/02 08:12:23;;;;;;;13.60;7.10;;;;;;;;;;4996897;28;20445;-28
2022/12/02 08:14:49;;;;;;;10.85;6.00;;;;;;;;;;4996981;28;20031;-27
2022/12/02 08:17:16;;;;;;;11.88;5.97;;;;;;;;;;4997308;28;20026;-27
2022/12/02 08:19:42;;;;;;;11.32;6.50;;;;;;;;;;4996877;28;20465;-27
2022/12/02 08:22:08;;;;;;;14.98;6.63;;;;;;;;;;4996849;28;20031;-27
2022/12/02 08:24:34;;;;;;;10.65;5.28;;;;;;;;;;4997106;28;20018;-26
2022/12/02 08:27:00;;;;;;;15.18;5.97;;;;;;;;;;4997054;28;20034;-27
2022/12/02 08:29:27;;;;;;;14.43;5.97;;;;;;;;;;4996760;28;20026;-26
2022/12/02 08:31:53;;;;;;;13.70;6.30;;;;;;;;;;4996461;28;20026;-26
2022/12/02 08:34:19;;;;;;;14.77;6.55;;;;;;;;;;4996824;28;20037;-26
2022/12/02 08:36:45;;;;;;;12.48;5.75;;;;;;;;;;4996181;28;20070;-27
2022/12/02 08:39:12;;;;;;;12.65;7.47;;;;;;;;;;4996633;28;20089;-27
2022/12/02 08:41:38;;;;;;;12.40;6.00;;;;;;;;;;4996519;28;20039;-26
2022/12/02 08:44:05;;;;;;;17.92;7.30;;;;;;;;;;4996436;28;20494;-27
2022/12/02 08:46:31;;;;;;;23.70;7.32;;;;;;;;;;4996387;28;20121;-27
2022/12/02 08:48:58;;;;;;;25.85;6.32;;;;;;;;;;4996877;28;20454;-27
2022/12/02 08:51:24;;;;;;;18.63;7.25;;;;;;;;;;4996305;28;20038;-27
2022/12/02 08:53:50;;;;;;;15.13;6.25;;;;;;;;;;4996715;28;20377;-27
2022/12/02 08:56:16;;;;;;;13.77;6.05;;;;;;;;;;4996365;28;20070;-27
2022/12/02 08:58:42;;;;;;;11.63;5.72;;;;;;;;;;4996328;28;20065;-27
2022/12/02 09:01:08;;;;;;;17.00;5.65;;;;;;;;;;4996228;28;20038;-27
2022/12/02 09:03:35;;;;;;;15.98;6.93;;;;;;;;;;4996100;28;20369;-27
2022/12/02 09:06:01;;;;;;;11.05;5.65;;;;;;;;;;4996458;28;20026;-27
2022/12/02 09:08:27;;;;;;;8.48;5.57;;;;;;;;;;4996305;28;20306;-27
2022/12/02 09:10:53;;;;;;;9.18;5.88;;;;;;;;;;4996765;28;20058;-27
2022/12/02 09:13:19;;;;;;;8.85;6.88;;;;;;;;;;4995805;28;20022;-27
2022/12/02 09:15:46;;;;;;;12.68;5.15;;;;;;;;;;4995885;28;20023;-27
2022/12/02 09:18:12;;;;;;;10.70;6.38;;;;;;;;;;4996194;28;20438;-27
2022/12/02 09:20:38;;;;;;;10.45;5.38;;;;;;;;;;4995823;28;20045;-27
2022/12/02 09:23:04;;;;;;;10.75;5.35;;;;;;;;;;4995748;28;20109;-27
2022/12/02 09:25:30;;;;;;;11.63;5.80;;;;;;;;;;4996221;28;20040;-27
2022/12/02 09:27:56;;;;;;;18.30;6.30;;;;;;;;;;4995599;28;20432;-26
2022/12/02 09:30:23;;;;;;;18.50;6.78;;;;;;;;;;4995969;28;20361;-26
2022/12/02 09:32:49;;;;;;;16.70;6.57;;;;;;;;;;4995381;28;20061;-27
2022/12/02 09:35:15;;;;;;;17.85;6.50;;;;;;;;;;4995873;28;20022;-27
2022/12/02 09:37:41;;;;;;;14.00;6.63;;;;;;;;;;4995837;28;20058;-27
2022/12/02 09:40:08;;;;;;;17.60;6.43;;;;;;;;;;4995598;28;20101;-27
2022/12/02 09:42:34;;;;;;;19.90;6.63;;;;;;;;;;4995678;28;20053;-27
2022/12/02 09:45:00;;;;;;;16.27;5.95;;;;;;;;;;4995667;28;20100;-27
2022/12/02 09:47:28;;;;;;;14.65;6.63;;;;;;;;;;4995401;28;20036;-27
2022/12/02 09:49:54;;;;;;;15.15;5.93;;;;;;;;;;4994714;28;20354;-26
2022/12/02 09:52:23;;;;;;;22.20;6.55;;;;;;;;;;4995043;28;20034;-27
2022/12/02 09:54:50;;;;;;;16.33;6.65;;;;;;;;;;4995513;28;20031;-26
2022/12/02 09:57:17;;;;;;;11.07;6.22;;;;;;;;;;4995240;28;20026;-27
2022/12/02 09:59:43;;;;;;;14.30;5.85;;;;;;;;;;4995728;28;20030;-27
2022/12/02 10:02:29;;;;;;;10.65;6.95;;;;;;;;;;4995393;28;20311;-26
2022/12/02 10:04:58;;;;;;;15.07;6.07;;;;;;;;;;4994990;28;20038;-27
2022/12/02 10:07:24;;;;;;;11.85;7.07;;;;;;;;;;4995225;28;20037;-27
2022/12/02 10:09:50;;;;;;;10.65;5.80;;;;;;;;;;4994980;28;20027;-27
2022/12/02 10:12:17;;;;;;;14.02;7.30;;;;;;;;;;4994841;28;20186;-26
2022/12/02 10:14:46;;;;;;;12.55;7.22;;;;;;;;;;4995135;28;20028;-26
2022/12/02 10:17:20;;;;;;;20.13;5.93;;;;;;;;;;4995174;28;20038;-26
2022/12/02 10:19:46;;;;;;;18.90;6.30;;;;;;;;;;4994809;28;20018;-26
2022/12/02 10:22:17;;;;;;;13.05;6.80;;;;;;;;;;4994701;28;20034;-26
2022/12/02 10:24:43;;;;;;;7.25;5.75;;;;;;;;;;4993707;28;20438;-28
2022/12/02 10:27:23;;;;;;;13.63;5.63;;;;;;;;;;4994967;28;20038;-27
2022/12/02 10:29:49;;;;;;;11.65;6.35;;;;;;;;;;4994644;28;20351;-27
2022/12/02 10:32:28;;;;;;;7.63;5.32;;;;;;;;;;4994773;28;20030;-27
2022/12/02 10:35:02;;;;;;;12.63;5.55;;;;;;;;;;4995264;28;20314;-27
2022/12/02 10:37:28;;;;;;;15.52;5.95;;;;;;;;;;4994468;28;20038;-27
2022/12/02 10:40:06;;;;;;;17.67;5.68;;;;;;;;;;4994475;28;20065;-27
2022/12/02 10:42:32;;;;;;;18.30;6.88;;;;;;;;;;4994638;28;20030;-27
2022/12/02 10:45:17;;;;;;;9.73;5.70;;;;;;;;;;4994413;28;20026;-27
2022/12/02 10:47:44;;;;;;;15.15;6.75;;;;;;;;;;4994577;28;20496;-28
2022/12/02 10:50:16;;;;;;;11.65;5.75;;;;;;;;;;4994627;28;20058;-28
2022/12/02 10:52:45;;;;;;;14.95;6.38;;;;;;;;;;4994088;28;20049;-27
2022/12/02 10:55:12;;;;;;;15.32;7.22;;;;;;;;;;4994607;28;20031;-27
2022/12/02 10:57:38;;;;;;;8.40;5.78;;;;;;;;;;4994358;28;20030;-27
2022/12/02 11:00:24;;;;;;;9.20;6.10;;;;;;;;;;4995338;28;20069;-27
2022/12/02 11:02:54;;;;;;;11.48;6.82;;;;;;;;;;4998017;28;20470;-27
2022/12/02 11:05:22;;;;;;;21.10;9.00;;;;;;;;;;4998166;28;20058;-27
2022/12/02 11:07:52;;;;;;;15.50;5.80;;;;;;;;;;4998564;28;20033;-26
2022/12/02 11:10:19;;;;;;;12.35;6.03;;;;;;;;;;4997970;28;20457;-26
2022/12/02 11:12:48;;;;;;;8.80;6.35;;;;;;;;;;4997828;28;20107;-27
2022/12/02 11:15:33;;;;;;;11.40;6.05;;;;;;;;;;4998196;28;20085;-27
2022/12/02 11:17:59;;;;;;;11.10;6.78;;;;;;;;;;4998124;28;20307;-27
2022/12/02 11:20:28;;;;;;;8.88;6.13;;;;;;;;;;4997987;28;20063;-27
2022/12/02 11:23:01;;;;;;;12.57;7.10;;;;;;;;;;4997579;28;20048;-28
2022/12/02 11:25:42;;;;;;;14.57;6.40;;;;;;;;;;4997954;28;20045;-27
2022/12/02 11:28:32;;;;;;;10.38;6.13;;;;;;;;;;4997608;28;20031;-28
2022/12/02 11:31:13;;;;;;;9.50;7.00;;;;;;;;;;4987646;28;20050;-28
2022/12/02 11:33:48;;;;;;;15.57;8.50;;;;;;;;;;4997401;28;20116;-28
2022/12/02 11:36:16;;;;;;;16.30;7.13;;;;;;;;;;4997736;28;20041;-28
2022/12/02 11:38:46;;;;;;;22.60;7.78;;;;;;;;;;4997660;28;20342;-28
2022/12/02 11:41:13;;;;;;;25.77;10.90;;;;;;;;;;4997333;28;20026;-26
2022/12/02 11:43:48;;;;;;;20.00;8.18;;;;;;;;;;4997099;28;20026;-27
2022/12/02 11:46:19;;;;;;;15.70;7.22;;;;;;;;;;4997454;28;20499;-27
2022/12/02 11:48:46;;;;;;;14.48;7.55;;;;;;;;;;4997522;28;20105;-27
2022/12/02 11:51:36;;;;;;;14.32;7.88;;;;;;;;;;4997380;28;20124;-27
2022/12/02 11:54:03;;;;;;;24.75;9.07;;;;;;;;;;4997119;28;20038;-27
2022/12/02 11:56:33;;;;;;;15.30;7.63;;;;;;;;;;4997420;28;20038;-27
2022/12/02 11:58:59;;;;;;;18.63;6.73;;;;;;;;;;4997456;28;20030;-27
2022/12/02 12:01:25;;;;;;;30.85;9.00;;;;;;;;;;4997169;28;20424;-27
2022/12/02 12:03:53;;;;;;;14.55;6.65;;;;;;;;;;4997114;28;20077;-27
2022/12/02 12:06:23;;;;;;;14.48;6.47;;;;;;;;;;4997943;28;20039;-27
2022/12/02 12:08:55;;;;;;;12.93;8.05;;;;;;;;;;4997408;28;20033;-27
2022/12/02 12:11:23;;;;;;;9.95;6.40;;;;;;;;;;4996747;28;20049;-27
2022/12/02 12:14:08;;;;;;;18.48;6.63;;;;;;;;;;4997070;28;20357;-28
2022/12/02 12:16:35;;;;;;;11.70;6.53;;;;;;;;;;4997394;28;20023;-28
2022/12/02 12:19:03;;;;;;;12.15;7.38;;;;;;;;;;4997546;28;20430;-27
2022/12/02 12:21:32;;;;;;;15.30;6.85;;;;;;;;;;4996975;28;20026;-28
2022/12/02 12:24:20;;;;;;;14.60;6.63;;;;;;;;;;4996662;28;20049;-27
2022/12/02 12:26:57;;;;;;;12.15;6.35;;;;;;;;;;4996621;28;20027;-28
2022/12/02 12:29:24;;;;;;;17.58;6.70;;;;;;;;;;4996690;28;20462;-27
2022/12/02 12:31:50;;;;;;;22.77;7.32;;;;;;;;;;4996841;28;20037;-27
2022/12/02 12:34:17;;;;;;;13.93;6.82;;;;;;;;;;4996510;28;20027;-27
2022/12/02 12:36:43;;;;;;;16.35;7.03;;;;;;;;;;4996626;28;20065;-27
2022/12/02 12:39:09;;;;;;;15.32;7.15;;;;;;;;;;4996574;28;20505;-27
2022/12/02 12:41:36;;;;;;;16.10;8.05;;;;;;;;;;4996462;28;20028;-27
2022/12/02 12:44:02;;;;;;;10.55;6.25;;;;;;;;;;4996308;28;20026;-27
2022/12/02 12:46:28;;;;;;;12.73;6.38;;;;;;;;;;4996625;28;20041;-27
2022/12/02 12:48:54;;;;;;;12.50;7.10;;;;;;;;;;4996635;28;20065;-27
2022/12/02 12:51:21;;;;;;;37.28;8.45;;;;;;;;;;4996111;28;20038;-27
2022/12/02 12:53:47;;;;;;;22.02;7.70;;;;;;;;;;4996185;28;20092;-27
2022/12/02 12:56:13;;;;;;;29.80;7.28;;;;;;;;;;4996127;28;20053;-27
2022/12/02 12:58:39;;;;;;;19.88;7.45;;;;;;;;;;4995972;28;20033;-26
2022/12/02 13:01:05;;;;;;;10.88;7.15;;;;;;;;;;4995971;28;20049;-26
2022/12/02 13:03:31;;;;;;;18.17;7.43;;;;;;;;;;4995928;28;20120;-27
2022/12/02 13:05:58;;;;;;;11.85;6.78;;;;;;;;;;4996418;28;20030;-27
2022/12/02 13:08:24;;;;;;;27.23;7.57;;;;;;;;;;4996819;28;20342;-26
2022/12/02 13:10:50;;;;;;;20.65;7.72;;;;;;;;;;4996039;28;20081;-26
2022/12/02 13:13:16;;;;;;;26.20;8.68;;;;;;;;;;4995764;28;20061;-27
2022/12/02 13:15:42;;;;;;;20.67;9.40;;;;;;;;;;4996183;28;20092;-27
2022/12/02 13:18:08;;;;;;;18.85;7.80;;;;;;;;;;4996079;28;20022;-27
2022/12/02 13:20:35;;;;;;;24.33;8.30;;;;;;;;;;4995830;28;20023;-27
2022/12/02 13:23:01;;;;;;;18.67;6.93;;;;;;;;;;4995892;28;20030;-27
2022/12/02 13:25:27;;;;;;;15.93;6.97;;;;;;;;;;4995636;28;20034;-27
2022/12/02 13:27:53;;;;;;;17.15;7.10;;;;;;;;;;4995624;28;20109;-28
2022/12/02 13:30:21;;;;;;;17.20;7.28;;;;;;;;;;4995552;28;20026;-26
2022/12/02 13:32:48;;;;;;;26.05;7.35;;;;;;;;;;4995620;28;20459;-27
2022/12/02 13:35:15;;;;;;;14.82;7.03;;;;;;;;;;4995548;28;20069;-26
2022/12/02 13:37:41;;;;;;;12.23;6.53;;;;;;;;;;4995739;28;20049;-27
2022/12/02 13:40:08;;;;;;;20.33;7.03;;;;;;;;;;4995463;28;20045;-27
2022/12/02 13:42:35;;;;;;;19.10;7.55;;;;;;;;;;4995293;28;20023;-27
2022/12/02 13:45:01;;;;;;;12.43;7.63;;;;;;;;;;4995509;28;20054;-27
2022/12/02 13:47:27;;;;;;;16.48;6.55;;;;;;;;;;4995267;28;20022;-27
2022/12/02 13:49:53;;;;;;;13.20;7.35;;;;;;;;;;4995388;28;20031;-26
2022/12/02 13:52:19;;;;;;;14.93;7.40;;;;;;;;;;4995142;28;20037;-27
2022/12/02 13:54:46;;;;;;;13.88;6.30;;;;;;;;;;4995161;28;20453;-27
2022/12/02 13:57:12;;;;;;;15.95;7.85;;;;;;;;;;4995240;28;20030;-27
2022/12/02 13:59:38;;;;;;;17.92;7.72;;;;;;;;;;4995369;28;20061;-27
2022/12/02 14:02:04;;;;;;;19.73;7.15;;;;;;;;;;4994031;28;20037;-27
2022/12/02 14:04:30;;;;;;;16.42;6.95;;;;;;;;;;4995517;28;20050;-27
2022/12/02 14:06:56;;;;;;;15.07;6.40;;;;;;;;;;4995063;28;20034;-27
2022/12/02 14:09:23;;;;;;;15.73;6.63;;;;;;;;;;4995372;28;20365;-27
2022/12/02 14:11:49;;;;;;;12.43;6.95;;;;;;;;;;4994960;28;20458;-27
2022/12/02 14:14:15;;;;;;;16.33;7.78;;;;;;;;;;4995270;28;20314;-27
2022/12/02 14:16:41;;;;;;;28.30;8.05;;;;;;;;;;4995060;28;20031;-27
2022/12/02 14:19:07;;;;;;;12.90;6.22;;;;;;;;;;4994895;28;20030;-27
2022/12/02 14:21:34;;;;;;;15.77;6.60;;;;;;;;;;4994914;28;20117;-27
2022/12/02 14:24:00;;;;;;;12.68;6.88;;;;;;;;;;4994887;28;20037;-27
2022/12/02 14:26:26;;;;;;;16.50;7.35;;;;;;;;;;4994884;28;20057;-27
2022/12/02 14:28:52;;;;;;;26.42;7.88;;;;;;;;;;4995125;28;20034;-27
2022/12/02 14:31:19;;;;;;;16.75;6.72;;;;;;;;;;4994810;28;20102;-27
2022/12/02 14:33:45;;;;;;;14.38;6.63;;;;;;;;;;4994662;28;20057;-27
2022/12/02 14:36:11;;;;;;;17.65;6.50;;;;;;;;;;4994137;28;20480;-27
2022/12/02 14:38:38;;;;;;;25.95;7.85;;;;;;;;;;4995212;28;20125;-27
2022/12/02 14:41:04;;;;;;;20.63;7.80;;;;;;;;;;4994746;28;20050;-27